Time;durP1;ratioP1;P1;durP2;ratioP2;P2;SDS_P1;SDS_P2;PMS_P1;PMS_P2;Temp;Humidity;BMP_temperature;BMP_pressure;BME280_temperature;BME280_humidity;BME280_pressure;Samples;Min_cycle;Max_cycle;Signal;HPM_P1;HPM_P2
2022/10/21 00:02:02;;;;;;;7.65;3.50;;;;;;;;;;4899330;29;20115;-64
2022/10/21 00:04:28;;;;;;;6.50;3.25;;;;;;;;;;4899245;29;20041;-64
2022/10/21 00:06:54;;;;;;;7.60;4.07;;;;;;;;;;4900037;29;20037;-65
2022/10/21 00:09:21;;;;;;;10.18;3.88;;;;;;;;;;4899921;29;20068;-63
2022/10/21 00:11:47;;;;;;;6.38;3.55;;;;;;;;;;4899782;29;20043;-63
2022/10/21 00:14:14;;;;;;;9.55;3.95;;;;;;;;;;4899304;29;20069;-63
2022/10/21 00:16:40;;;;;;;5.15;3.00;;;;;;;;;;4900871;29;20049;-63
2022/10/21 00:19:07;;;;;;;7.78;3.95;;;;;;;;;;4901163;29;20462;-62
2022/10/21 00:21:35;;;;;;;7.70;3.92;;;;;;;;;;4900958;29;20040;-62
2022/10/21 00:24:02;;;;;;;4.88;3.10;;;;;;;;;;4899146;29;20391;-63
2022/10/21 00:26:28;;;;;;;8.43;3.25;;;;;;;;;;4901272;29;20044;-62
2022/10/21 00:28:58;;;;;;;5.80;2.72;;;;;;;;;;4898720;29;20072;-63
2022/10/21 00:31:24;;;;;;;6.57;3.45;;;;;;;;;;4899834;29;20060;-63
2022/10/21 00:33:51;;;;;;;5.47;3.10;;;;;;;;;;4899345;29;20041;-62
2022/10/21 00:36:17;;;;;;;7.28;3.08;;;;;;;;;;4899759;29;20048;-62
2022/10/21 00:38:45;;;;;;;7.70;3.00;;;;;;;;;;4899581;29;20048;-63
2022/10/21 00:41:12;;;;;;;6.57;2.67;;;;;;;;;;4899446;29;20108;-62
2022/10/21 00:43:56;;;;;;;4.60;3.05;;;;;;;;;;4898834;29;20055;-62
2022/10/21 00:46:27;;;;;;;5.90;3.45;;;;;;;;;;4899309;29;20077;-62
2022/10/21 00:48:56;;;;;;;5.90;2.83;;;;;;;;;;4899450;29;20073;-62
2022/10/21 00:51:23;;;;;;;6.35;3.28;;;;;;;;;;4899225;29;20536;-62
2022/10/21 00:53:50;;;;;;;6.45;2.90;;;;;;;;;;4898594;29;20048;-62
2022/10/21 00:56:25;;;;;;;7.88;3.00;;;;;;;;;;4899238;29;20048;-62
2022/10/21 00:58:54;;;;;;;7.82;2.97;;;;;;;;;;4899149;29;20055;-62
2022/10/21 01:01:20;;;;;;;4.72;3.13;;;;;;;;;;4897601;29;20100;-64
2022/10/21 01:03:48;;;;;;;3.72;2.83;;;;;;;;;;4898403;29;20045;-63
2022/10/21 01:06:15;;;;;;;5.55;3.10;;;;;;;;;;4898899;29;20490;-63
2022/10/21 01:08:42;;;;;;;5.20;3.05;;;;;;;;;;4898943;29;20490;-63
2022/10/21 01:11:13;;;;;;;6.75;3.22;;;;;;;;;;4899333;29;20632;-63
2022/10/21 01:14:03;;;;;;;4.75;2.85;;;;;;;;;;4898092;29;20044;-64
2022/10/21 01:16:50;;;;;;;4.30;2.92;;;;;;;;;;4898691;29;20048;-63
2022/10/21 01:19:16;;;;;;;5.95;3.03;;;;;;;;;;4897146;29;20049;-63
2022/10/21 01:21:49;;;;;;;4.60;2.90;;;;;;;;;;4897122;29;20059;-63
2022/10/21 01:24:15;;;;;;;9.27;4.20;;;;;;;;;;4897759;29;20113;-63
2022/10/21 01:26:49;;;;;;;5.38;3.17;;;;;;;;;;4898435;29;20341;-62
2022/10/21 01:29:34;;;;;;;5.40;3.20;;;;;;;;;;4898492;29;20497;-63
2022/10/21 01:32:12;;;;;;;4.20;2.88;;;;;;;;;;4896719;29;20049;-63
2022/10/21 01:34:58;;;;;;;6.80;3.42;;;;;;;;;;4898363;29;20079;-63
2022/10/21 01:37:28;;;;;;;4.32;3.33;;;;;;;;;;4897806;29;20048;-63
2022/10/21 01:39:59;;;;;;;5.20;3.47;;;;;;;;;;4898350;29;20123;-63
2022/10/21 01:42:26;;;;;;;5.07;3.35;;;;;;;;;;4897648;29;20124;-62
2022/10/21 01:44:55;;;;;;;6.13;3.35;;;;;;;;;;4898139;29;20036;-63
2022/10/21 01:47:28;;;;;;;5.38;3.30;;;;;;;;;;4898158;29;20493;-63
2022/10/21 01:49:58;;;;;;;4.57;3.63;;;;;;;;;;4896810;29;20044;-63
2022/10/21 01:52:25;;;;;;;7.90;3.80;;;;;;;;;;4897288;29;20041;-62
2022/10/21 01:54:54;;;;;;;6.28;3.33;;;;;;;;;;4896781;29;20140;-62
2022/10/21 01:57:22;;;;;;;5.35;3.20;;;;;;;;;;4897958;29;20048;-62
2022/10/21 01:59:50;;;;;;;5.35;4.00;;;;;;;;;;4881117;29;20044;-62
2022/10/21 02:02:18;;;;;;;8.80;3.72;;;;;;;;;;4897161;29;20420;-62
2022/10/21 02:04:46;;;;;;;7.47;3.38;;;;;;;;;;4898147;29;20142;-62
2022/10/21 02:07:12;;;;;;;6.13;3.53;;;;;;;;;;4896522;29;20049;-62
2022/10/21 02:09:38;;;;;;;5.65;3.35;;;;;;;;;;4896707;29;20555;-62
2022/10/21 02:12:06;;;;;;;4.57;2.58;;;;;;;;;;4897020;29;20048;-63
2022/10/21 02:14:41;;;;;;;9.30;3.25;;;;;;;;;;4897576;29;20048;-63
2022/10/21 02:17:09;;;;;;;4.97;3.28;;;;;;;;;;4897646;29;20413;-63
2022/10/21 02:19:35;;;;;;;3.55;2.80;;;;;;;;;;4897520;29;20073;-63
2022/10/21 02:22:03;;;;;;;6.55;3.58;;;;;;;;;;4889576;29;20459;-64
2022/10/21 02:24:41;;;;;;;8.13;3.17;;;;;;;;;;4878788;29;20049;-63
2022/10/21 02:27:08;;;;;;;3.45;2.80;;;;;;;;;;4878680;29;20447;-67
2022/10/21 02:29:36;;;;;;;6.28;3.63;;;;;;;;;;4878905;29;20045;-64
2022/10/21 02:32:19;;;;;;;7.32;3.22;;;;;;;;;;4878017;29;20045;-64
2022/10/21 02:34:45;;;;;;;4.75;2.88;;;;;;;;;;4877493;29;20056;-63
2022/10/21 02:37:23;;;;;;;5.20;3.03;;;;;;;;;;4877802;29;20425;-64
2022/10/21 02:40:13;;;;;;;6.85;3.45;;;;;;;;;;4878969;29;20052;-64
2022/10/21 02:42:43;;;;;;;5.53;3.10;;;;;;;;;;4850928;29;20053;-63
2022/10/21 02:45:09;;;;;;;5.65;3.05;;;;;;;;;;4878542;29;20045;-64
2022/10/21 02:47:37;;;;;;;4.47;3.25;;;;;;;;;;4877785;29;20049;-64
2022/10/21 02:50:04;;;;;;;4.03;3.42;;;;;;;;;;4880246;29;20049;-64
2022/10/21 02:52:30;;;;;;;6.93;3.33;;;;;;;;;;4879279;29;20092;-64
2022/10/21 02:54:57;;;;;;;5.32;3.20;;;;;;;;;;4878550;29;20056;-64
2022/10/21 02:57:23;;;;;;;6.38;3.10;;;;;;;;;;4879341;29;20049;-64
2022/10/21 02:59:50;;;;;;;5.85;3.30;;;;;;;;;;4879004;29;20056;-64
2022/10/21 03:02:16;;;;;;;8.80;3.10;;;;;;;;;;4878165;29;20080;-64
2022/10/21 03:04:42;;;;;;;5.13;2.90;;;;;;;;;;4877585;29;20053;-64
2022/10/21 03:07:09;;;;;;;6.00;3.55;;;;;;;;;;4879009;29;20089;-64
2022/10/21 03:09:35;;;;;;;3.80;3.00;;;;;;;;;;4878141;29;20375;-64
2022/10/21 03:12:02;;;;;;;4.63;3.22;;;;;;;;;;4877388;29;20057;-64
2022/10/21 03:14:28;;;;;;;8.38;3.25;;;;;;;;;;4878990;29;20447;-64
2022/10/21 03:16:54;;;;;;;4.60;3.00;;;;;;;;;;4877640;29;20116;-64
2022/10/21 03:19:21;;;;;;;6.75;3.35;;;;;;;;;;4876891;29;20049;-64
2022/10/21 03:21:47;;;;;;;5.93;2.92;;;;;;;;;;4876877;29;20093;-63
2022/10/21 03:24:14;;;;;;;5.80;2.72;;;;;;;;;;4877786;29;20041;-63
2022/10/21 03:26:52;;;;;;;8.35;3.45;;;;;;;;;;4876940;29;20065;-64
2022/10/21 03:29:19;;;;;;;5.43;3.33;;;;;;;;;;4878062;29;20045;-64
2022/10/21 03:31:45;;;;;;;4.15;3.13;;;;;;;;;;4877946;29;20045;-63
2022/10/21 03:34:12;;;;;;;5.53;2.83;;;;;;;;;;4876303;29;20045;-63
2022/10/21 03:36:38;;;;;;;5.25;3.20;;;;;;;;;;4877888;29;20057;-64
2022/10/21 03:39:05;;;;;;;6.68;3.45;;;;;;;;;;4877989;29;20411;-64
2022/10/21 03:41:31;;;;;;;6.90;3.65;;;;;;;;;;4877942;29;20087;-64
2022/10/21 03:43:57;;;;;;;6.55;3.22;;;;;;;;;;4876328;29;20041;-64
2022/10/21 03:46:24;;;;;;;5.00;3.45;;;;;;;;;;4877890;29;20078;-64
2022/10/21 03:48:50;;;;;;;3.60;3.30;;;;;;;;;;4861293;29;20045;-64
2022/10/21 03:51:16;;;;;;;3.97;3.45;;;;;;;;;;4877819;29;20105;-64
2022/10/21 03:53:43;;;;;;;4.75;3.00;;;;;;;;;;4877310;29;20053;-64
2022/10/21 03:56:10;;;;;;;8.68;3.45;;;;;;;;;;4876631;29;20049;-64
2022/10/21 03:58:36;;;;;;;6.65;3.38;;;;;;;;;;4878131;29;20049;-64
2022/10/21 04:03:37;;;;;;;5.05;3.38;;;;;;;;;;4895321;29;20049;-62
2022/10/21 04:06:04;;;;;;;4.82;2.92;;;;;;;;;;4900136;29;20044;-61
2022/10/21 04:08:30;;;;;;;4.50;3.30;;;;;;;;;;4930659;29;20080;-62
2022/10/21 04:10:57;;;;;;;7.93;3.63;;;;;;;;;;4900303;29;20049;-62
2022/10/21 04:13:23;;;;;;;5.18;3.22;;;;;;;;;;4916013;29;20048;-62
2022/10/21 04:15:50;;;;;;;8.18;3.63;;;;;;;;;;4919119;29;20072;-61
2022/10/21 04:18:16;;;;;;;9.35;3.65;;;;;;;;;;4917953;29;20119;-62
2022/10/21 04:20:42;;;;;;;5.50;3.10;;;;;;;;;;4918819;29;20044;-61
2022/10/21 04:23:09;;;;;;;8.45;3.50;;;;;;;;;;4918313;29;20099;-62
2022/10/21 04:25:35;;;;;;;21.05;3.38;;;;;;;;;;4949212;29;20504;-62
2022/10/21 04:28:02;;;;;;;5.13;3.70;;;;;;;;;;4918637;29;20052;-62
2022/10/21 04:30:28;;;;;;;5.50;2.80;;;;;;;;;;4918392;29;20378;-62
2022/10/21 04:32:54;;;;;;;3.60;3.00;;;;;;;;;;4917777;29;20548;-62
2022/10/21 04:35:21;;;;;;;10.15;3.80;;;;;;;;;;4918932;29;20048;-62
2022/10/21 04:37:47;;;;;;;7.80;3.60;;;;;;;;;;4918339;29;20096;-63
2022/10/21 04:40:13;;;;;;;11.80;4.85;;;;;;;;;;4917391;29;20065;-62
2022/10/21 04:42:40;;;;;;;9.77;5.35;;;;;;;;;;4916417;29;20043;-61
2022/10/21 04:45:07;;;;;;;6.53;4.03;;;;;;;;;;4918390;29;20092;-62
2022/10/21 04:47:33;;;;;;;7.80;4.55;;;;;;;;;;4918321;29;20051;-61
2022/10/21 04:49:59;;;;;;;13.43;5.63;;;;;;;;;;4918339;29;20092;-64
2022/10/21 04:52:26;;;;;;;12.48;4.80;;;;;;;;;;4916538;29;20052;-63
2022/10/21 04:54:52;;;;;;;10.90;4.25;;;;;;;;;;4916770;29;20052;-62
2022/10/21 04:57:19;;;;;;;11.77;4.43;;;;;;;;;;4918379;29;20045;-62
2022/10/21 04:59:45;;;;;;;9.57;4.20;;;;;;;;;;4916919;29;20099;-62
2022/10/21 05:02:12;;;;;;;9.25;3.95;;;;;;;;;;4900649;29;20552;-62
2022/10/21 05:04:39;;;;;;;6.72;3.78;;;;;;;;;;4918111;29;20047;-62
2022/10/21 05:07:05;;;;;;;5.38;3.80;;;;;;;;;;4916696;29;20465;-63
2022/10/21 05:09:31;;;;;;;7.07;4.07;;;;;;;;;;4917810;29;20043;-62
2022/10/21 05:11:58;;;;;;;5.53;3.55;;;;;;;;;;4917281;29;20103;-62
2022/10/21 05:14:24;;;;;;;8.65;4.70;;;;;;;;;;4917996;29;20059;-63
2022/10/21 05:16:50;;;;;;;11.23;4.22;;;;;;;;;;4917999;29;20051;-63
2022/10/21 05:19:17;;;;;;;8.77;3.80;;;;;;;;;;4918211;29;20048;-63
2022/10/21 05:21:45;;;;;;;16.17;4.50;;;;;;;;;;4917871;29;20072;-62
2022/10/21 05:24:12;;;;;;;7.50;4.53;;;;;;;;;;4916488;29;20485;-63
2022/10/21 05:26:39;;;;;;;10.25;4.20;;;;;;;;;;4918013;29;20040;-63
2022/10/21 05:29:05;;;;;;;11.40;3.67;;;;;;;;;;4916250;29;20450;-63
2022/10/21 05:31:32;;;;;;;6.97;3.47;;;;;;;;;;4917338;29;20044;-63
2022/10/21 05:33:58;;;;;;;8.82;3.75;;;;;;;;;;4915597;29;20056;-63
2022/10/21 05:36:25;;;;;;;7.85;4.10;;;;;;;;;;4917259;29;20052;-63
2022/10/21 05:38:51;;;;;;;8.65;4.10;;;;;;;;;;4917097;29;20063;-63
2022/10/21 05:41:18;;;;;;;8.40;4.25;;;;;;;;;;4915777;29;20088;-63
2022/10/21 05:43:44;;;;;;;8.50;4.40;;;;;;;;;;4916815;29;20489;-63
2022/10/21 05:46:11;;;;;;;8.75;4.63;;;;;;;;;;4916963;29;20055;-63
2022/10/21 05:48:37;;;;;;;7.63;4.20;;;;;;;;;;4917042;29;20068;-63
2022/10/21 05:51:04;;;;;;;7.30;3.97;;;;;;;;;;4947142;29;20088;-62
2022/10/21 05:53:30;;;;;;;10.27;4.75;;;;;;;;;;4914958;29;20040;-63
2022/10/21 05:56:01;;;;;;;10.15;7.05;;;;;;;;;;4916775;29;20044;-63
2022/10/21 05:58:28;;;;;;;9.02;4.60;;;;;;;;;;4916772;29;20052;-63
2022/10/21 06:00:55;;;;;;;10.05;5.13;;;;;;;;;;4916883;29;20067;-63
2022/10/21 06:03:22;;;;;;;11.10;4.70;;;;;;;;;;4915034;29;20062;-63
2022/10/21 06:05:49;;;;;;;9.73;5.40;;;;;;;;;;4916912;29;20544;-63
2022/10/21 06:08:16;;;;;;;11.02;5.10;;;;;;;;;;4915263;29;20079;-63
2022/10/21 06:10:43;;;;;;;8.10;5.15;;;;;;;;;;4915352;29;20109;-63
2022/10/21 06:13:09;;;;;;;13.05;4.22;;;;;;;;;;4915733;29;20052;-64
2022/10/21 06:15:36;;;;;;;10.32;4.68;;;;;;;;;;4915063;29;20052;-63
2022/10/21 06:18:02;;;;;;;12.27;5.72;;;;;;;;;;4916385;29;20107;-63
2022/10/21 06:20:29;;;;;;;10.70;5.20;;;;;;;;;;4916303;29;20048;-63
2022/10/21 06:22:57;;;;;;;10.18;5.47;;;;;;;;;;4915493;29;20048;-63
2022/10/21 06:25:23;;;;;;;11.38;5.13;;;;;;;;;;4916020;29;20147;-64
2022/10/21 06:27:50;;;;;;;8.70;4.32;;;;;;;;;;4916439;29;20048;-64
2022/10/21 06:30:17;;;;;;;11.65;5.70;;;;;;;;;;4916235;29;20512;-63
2022/10/21 06:32:43;;;;;;;11.52;5.22;;;;;;;;;;4915552;29;20048;-63
2022/10/21 06:35:10;;;;;;;8.25;4.10;;;;;;;;;;4913702;29;20095;-63
2022/10/21 06:37:36;;;;;;;7.55;3.85;;;;;;;;;;4936295;23;20044;-63
2022/10/21 06:40:03;;;;;;;5.57;3.60;;;;;;;;;;4895643;29;20092;-63
2022/10/21 06:42:30;;;;;;;9.07;3.55;;;;;;;;;;4898984;29;20040;-62
2022/10/21 06:44:56;;;;;;;10.80;3.80;;;;;;;;;;4899808;29;20504;-62
2022/10/21 06:47:25;;;;;;;5.28;3.40;;;;;;;;;;4901581;29;20501;-62
2022/10/21 06:49:52;;;;;;;7.97;3.67;;;;;;;;;;4902322;29;20544;-62
2022/10/21 06:52:18;;;;;;;8.70;3.17;;;;;;;;;;4905791;29;20416;-62
2022/10/21 06:54:45;;;;;;;6.93;3.30;;;;;;;;;;4906579;29;20095;-62
2022/10/21 06:57:11;;;;;;;6.82;3.10;;;;;;;;;;4902375;29;20566;-62
2022/10/21 06:59:38;;;;;;;7.07;3.45;;;;;;;;;;4902941;29;20044;-63
2022/10/21 07:02:04;;;;;;;7.28;3.30;;;;;;;;;;4902425;29;20092;-62
2022/10/21 07:04:31;;;;;;;9.60;4.45;;;;;;;;;;4902755;29;20049;-62
2022/10/21 07:06:57;;;;;;;10.98;3.88;;;;;;;;;;4903414;29;20044;-62
2022/10/21 07:09:31;;;;;;;6.40;2.97;;;;;;;;;;4903945;29;20032;-63
2022/10/21 07:11:59;;;;;;;6.75;4.55;;;;;;;;;;4900586;29;20048;-64
2022/10/21 07:14:25;;;;;;;8.88;4.63;;;;;;;;;;4897119;29;20108;-63
2022/10/21 07:16:52;;;;;;;6.88;4.75;;;;;;;;;;4911627;29;20052;-64
2022/10/21 07:19:19;;;;;;;7.95;4.40;;;;;;;;;;4896880;29;20049;-64
2022/10/21 07:21:45;;;;;;;10.85;4.45;;;;;;;;;;4896990;29;20051;-64
2022/10/21 07:24:12;;;;;;;9.70;4.00;;;;;;;;;;4896596;29;20051;-65
2022/10/21 07:26:38;;;;;;;11.93;4.05;;;;;;;;;;4896852;29;20144;-65
2022/10/21 07:29:05;;;;;;;9.07;5.38;;;;;;;;;;4896793;29;20382;-65
2022/10/21 07:31:33;;;;;;;10.73;4.60;;;;;;;;;;4896759;29;20041;-65
2022/10/21 07:34:00;;;;;;;14.55;5.75;;;;;;;;;;4896069;29;20044;-65
2022/10/21 07:36:28;;;;;;;14.50;7.18;;;;;;;;;;4900577;29;20063;-65
2022/10/21 07:38:57;;;;;;;9.15;6.10;;;;;;;;;;4900513;29;20068;-64
2022/10/21 07:41:25;;;;;;;7.72;4.15;;;;;;;;;;4900892;29;20045;-64
2022/10/21 07:43:52;;;;;;;11.80;6.38;;;;;;;;;;4914791;29;20545;-63
2022/10/21 07:46:19;;;;;;;12.15;4.97;;;;;;;;;;4900838;29;20052;-63
2022/10/21 07:48:46;;;;;;;9.82;5.65;;;;;;;;;;4900640;29;20072;-63
2022/10/21 07:51:14;;;;;;;11.07;4.97;;;;;;;;;;4900985;29;20044;-63
2022/10/21 07:53:40;;;;;;;15.27;5.70;;;;;;;;;;4914815;29;20055;-64
2022/10/21 07:56:09;;;;;;;10.48;5.25;;;;;;;;;;4899210;29;20143;-64
2022/10/21 07:58:36;;;;;;;7.93;4.82;;;;;;;;;;4900596;29;20060;-64
2022/10/21 08:01:04;;;;;;;9.40;4.45;;;;;;;;;;4900742;29;20494;-63
2022/10/21 08:03:31;;;;;;;7.43;4.88;;;;;;;;;;4910484;29;20049;-64
2022/10/21 08:05:57;;;;;;;5.90;4.25;;;;;;;;;;4914158;29;20044;-63
2022/10/21 08:08:24;;;;;;;9.75;4.55;;;;;;;;;;4912547;29;20073;-63
2022/10/21 08:10:51;;;;;;;10.00;5.88;;;;;;;;;;4912481;29;20069;-63
2022/10/21 08:13:18;;;;;;;8.38;4.53;;;;;;;;;;4914908;29;20149;-63
2022/10/21 08:15:45;;;;;;;11.48;4.88;;;;;;;;;;4915321;29;20103;-64
2022/10/21 08:18:12;;;;;;;9.80;4.80;;;;;;;;;;4897791;29;20060;-64
2022/10/21 08:20:39;;;;;;;8.00;4.47;;;;;;;;;;4924976;29;20053;-64
2022/10/21 08:23:06;;;;;;;13.10;9.02;;;;;;;;;;4907158;29;20449;-64
2022/10/21 08:25:33;;;;;;;13.40;8.13;;;;;;;;;;4907190;29;20044;-64
2022/10/21 08:28:00;;;;;;;9.63;6.22;;;;;;;;;;4909456;29;20052;-65
2022/10/21 08:30:28;;;;;;;7.95;6.10;;;;;;;;;;4907004;29;20435;-65
2022/10/21 08:32:55;;;;;;;14.75;6.90;;;;;;;;;;4925637;29;20056;-65
2022/10/21 08:35:21;;;;;;;8.90;5.60;;;;;;;;;;4915066;29;20048;-64
2022/10/21 08:37:48;;;;;;;8.07;4.88;;;;;;;;;;4910025;29;20471;-67
2022/10/21 08:40:15;;;;;;;7.68;4.45;;;;;;;;;;4899481;29;20469;-65
2022/10/21 08:42:43;;;;;;;5.88;3.70;;;;;;;;;;4899353;29;20041;-65
2022/10/21 08:45:25;;;;;;;5.97;3.28;;;;;;;;;;4900105;29;20048;-66
2022/10/21 08:47:54;;;;;;;5.35;3.90;;;;;;;;;;4899229;29;20077;-66
2022/10/21 08:50:22;;;;;;;9.20;4.20;;;;;;;;;;4914792;29;20386;-66
2022/10/21 08:52:49;;;;;;;7.57;4.00;;;;;;;;;;4897849;29;20501;-66
2022/10/21 08:55:27;;;;;;;7.03;3.15;;;;;;;;;;4898457;29;20048;-66
2022/10/21 08:57:54;;;;;;;4.13;2.90;;;;;;;;;;4898366;29;20048;-66
2022/10/21 09:00:26;;;;;;;6.07;3.22;;;;;;;;;;4899368;29;20408;-66
2022/10/21 09:03:11;;;;;;;6.03;2.95;;;;;;;;;;4898673;29;20044;-66
2022/10/21 09:05:57;;;;;;;4.95;2.70;;;;;;;;;;4913625;29;20148;-66
2022/10/21 09:08:42;;;;;;;5.63;2.33;;;;;;;;;;4897752;29;20414;-64
2022/10/21 09:11:08;;;;;;;3.67;2.10;;;;;;;;;;4899164;29;20378;-66
2022/10/21 09:13:49;;;;;;;3.45;2.38;;;;;;;;;;4897235;29;20474;-66
2022/10/21 09:16:32;;;;;;;5.25;2.50;;;;;;;;;;4898014;29;20123;-66
2022/10/21 09:18:59;;;;;;;3.63;2.58;;;;;;;;;;4897721;29;20056;-65
2022/10/21 09:21:40;;;;;;;7.25;2.78;;;;;;;;;;4898871;29;20048;-65
2022/10/21 09:24:07;;;;;;;5.50;3.08;;;;;;;;;;4897228;29;20055;-65
2022/10/21 09:26:44;;;;;;;4.00;2.63;;;;;;;;;;4898707;29;20045;-65
2022/10/21 09:29:14;;;;;;;4.15;2.63;;;;;;;;;;4897486;29;20140;-65
2022/10/21 09:31:42;;;;;;;4.57;2.58;;;;;;;;;;4898671;29;20043;-65
2022/10/21 09:34:15;;;;;;;6.68;3.85;;;;;;;;;;4896867;29;20060;-65
2022/10/21 09:36:46;;;;;;;4.85;2.78;;;;;;;;;;4898220;29;20053;-65
2022/10/21 09:39:19;;;;;;;3.67;3.08;;;;;;;;;;4899154;29;20429;-63
2022/10/21 09:41:48;;;;;;;4.63;2.90;;;;;;;;;;4899229;29;20088;-65
2022/10/21 09:44:21;;;;;;;4.22;1.95;;;;;;;;;;4901064;29;20537;-65
2022/10/21 09:46:49;;;;;;;3.75;2.42;;;;;;;;;;4919026;29;20390;-64
2022/10/21 09:49:32;;;;;;;2.67;2.00;;;;;;;;;;4899786;29;20083;-67
2022/10/21 09:52:19;;;;;;;4.68;2.40;;;;;;;;;;4898865;29;20048;-64
2022/10/21 09:54:46;;;;;;;6.07;2.17;;;;;;;;;;4899111;29;20044;-65
2022/10/21 09:57:14;;;;;;;2.25;1.67;;;;;;;;;;4899015;29;20052;-65
2022/10/21 09:59:53;;;;;;;1.67;1.13;;;;;;;;;;4899501;29;20040;-65
2022/10/21 10:02:35;;;;;;;1.77;1.27;;;;;;;;;;4898103;29;20045;-63
2022/10/21 10:05:21;;;;;;;1.90;1.42;;;;;;;;;;4898050;29;20049;-63
2022/10/21 10:07:47;;;;;;;1.77;1.63;;;;;;;;;;4897847;29;20045;-63
2022/10/21 10:10:28;;;;;;;1.20;0.80;;;;;;;;;;4896743;29;20045;-63
2022/10/21 10:12:56;;;;;;;1.48;1.02;;;;;;;;;;4897077;29;20059;-63
2022/10/21 10:15:24;;;;;;;1.75;0.65;;;;;;;;;;4898307;29;20048;-65
2022/10/21 10:17:56;;;;;;;1.92;0.68;;;;;;;;;;4882813;29;20091;-63
2022/10/21 10:20:23;;;;;;;1.80;1.58;;;;;;;;;;4912292;29;20581;-63
2022/10/21 10:22:59;;;;;;;2.28;1.40;;;;;;;;;;4897984;29;20037;-64
2022/10/21 10:25:29;;;;;;;2.60;0.98;;;;;;;;;;4898255;29;20052;-65
2022/10/21 10:28:00;;;;;;;1.52;0.85;;;;;;;;;;4881076;29;20092;-64
2022/10/21 10:30:37;;;;;;;1.85;1.08;;;;;;;;;;4896490;29;20041;-63
2022/10/21 10:33:07;;;;;;;1.33;1.08;;;;;;;;;;4897880;29;20454;-65
2022/10/21 10:35:35;;;;;;;1.10;1.00;;;;;;;;;;4898494;29;20489;-65
2022/10/21 10:38:03;;;;;;;2.75;1.10;;;;;;;;;;4898070;29;20049;-64
2022/10/21 10:40:40;;;;;;;1.45;1.17;;;;;;;;;;4897124;29;20076;-65
2022/10/21 10:43:14;;;;;;;2.40;1.27;;;;;;;;;;4896851;29;20051;-64
2022/10/21 10:46:09;;;;;;;1.15;0.80;;;;;;;;;;4897613;29;20052;-65
2022/10/21 10:48:41;;;;;;;1.15;0.88;;;;;;;;;;4896616;29;20071;-64
2022/10/21 10:51:23;;;;;;;1.02;0.70;;;;;;;;;;4897525;29;20126;-64
2022/10/21 10:54:13;;;;;;;1.85;1.08;;;;;;;;;;4896881;29;20044;-64
2022/10/21 10:56:57;;;;;;;4.50;1.20;;;;;;;;;;4894703;29;20458;-64
2022/10/21 10:59:39;;;;;;;2.55;1.13;;;;;;;;;;4897184;29;20049;-63
2022/10/21 11:02:09;;;;;;;4.07;1.33;;;;;;;;;;4896840;29;20509;-63
2022/10/21 11:04:37;;;;;;;2.50;1.15;;;;;;;;;;4897363;29;20119;-63
2022/10/21 11:07:06;;;;;;;1.17;0.98;;;;;;;;;;4896324;29;20402;-64
2022/10/21 11:09:33;;;;;;;1.35;0.85;;;;;;;;;;4896512;29;20040;-64
2022/10/21 11:12:02;;;;;;;3.05;0.90;;;;;;;;;;4895619;29;20056;-65
2022/10/21 11:14:28;;;;;;;8.90;5.00;;;;;;;;;;4897134;29;20124;-63
2022/10/21 11:17:15;;;;;;;12.90;8.18;;;;;;;;;;4911571;29;20060;-63
2022/10/21 11:19:44;;;;;;;3.47;2.40;;;;;;;;;;4880535;29;20056;-63
2022/10/21 11:22:12;;;;;;;4.78;2.42;;;;;;;;;;4898037;29;20049;-64
2022/10/21 11:24:58;;;;;;;2.40;1.35;;;;;;;;;;4895893;29;20486;-63
2022/10/21 11:27:45;;;;;;;1.33;0.88;;;;;;;;;;4897273;29;20064;-63
2022/10/21 11:30:15;;;;;;;2.40;1.27;;;;;;;;;;4897072;29;20104;-63
2022/10/21 11:32:53;;;;;;;2.13;1.83;;;;;;;;;;4896522;29;20502;-63
2022/10/21 11:35:32;;;;;;;1.52;1.00;;;;;;;;;;4897126;29;20052;-64
2022/10/21 11:37:58;;;;;;;4.28;1.17;;;;;;;;;;4896741;29;20451;-62
2022/10/21 11:40:30;;;;;;;2.83;1.25;;;;;;;;;;4911728;29;20116;-65
2022/10/21 11:43:02;;;;;;;1.60;1.20;;;;;;;;;;4895040;29;20509;-64
2022/10/21 11:45:29;;;;;;;2.67;1.23;;;;;;;;;;4896878;29;20040;-63
2022/10/21 11:48:06;;;;;;;2.78;1.10;;;;;;;;;;4896784;29;20044;-64
2022/10/21 11:50:37;;;;;;;2.05;1.00;;;;;;;;;;4896911;29;20052;-64
2022/10/21 11:53:20;;;;;;;2.30;1.58;;;;;;;;;;4895103;29;20470;-64
2022/10/21 11:55:56;;;;;;;3.00;1.10;;;;;;;;;;4911370;29;20053;-65
2022/10/21 11:58:28;;;;;;;3.92;1.10;;;;;;;;;;4896683;29;20494;-64
2022/10/21 12:01:01;;;;;;;2.63;0.90;;;;;;;;;;4896088;29;20053;-64
2022/10/21 12:03:50;;;;;;;2.15;0.98;;;;;;;;;;4898443;29;20052;-64
2022/10/21 12:06:26;;;;;;;2.65;0.88;;;;;;;;;;4898487;29;20049;-65
2022/10/21 12:08:53;;;;;;;4.00;1.00;;;;;;;;;;4912253;29;20454;-64
2022/10/21 12:11:25;;;;;;;5.32;1.75;;;;;;;;;;4896637;29;20096;-65
2022/10/21 12:13:55;;;;;;;5.15;1.15;;;;;;;;;;4896114;29;20096;-65
2022/10/21 12:16:26;;;;;;;4.05;1.20;;;;;;;;;;4897037;29;20052;-65
2022/10/21 12:18:55;;;;;;;1.35;1.05;;;;;;;;;;4896712;29;20513;-65
2022/10/21 12:21:23;;;;;;;4.05;1.27;;;;;;;;;;4898096;29;20470;-65
2022/10/21 12:23:53;;;;;;;2.30;1.17;;;;;;;;;;4898183;29;20398;-64
2022/10/21 12:26:27;;;;;;;1.73;1.27;;;;;;;;;;4900367;29;20049;-65
2022/10/21 12:28:57;;;;;;;4.38;1.70;;;;;;;;;;4900050;29;20048;-64
2022/10/21 12:31:30;;;;;;;3.88;1.20;;;;;;;;;;4914557;29;20470;-65
2022/10/21 12:33:58;;;;;;;3.80;2.10;;;;;;;;;;4898509;29;20056;-64
2022/10/21 12:36:44;;;;;;;6.63;1.77;;;;;;;;;;4900966;29;20132;-65
2022/10/21 12:39:30;;;;;;;2.17;1.27;;;;;;;;;;4899843;29;20589;-64
2022/10/21 12:42:12;;;;;;;4.82;1.10;;;;;;;;;;4899758;29;20390;-65
2022/10/21 12:44:44;;;;;;;3.47;0.90;;;;;;;;;;4900233;29;20052;-65
2022/10/21 12:47:32;;;;;;;2.67;1.35;;;;;;;;;;4884148;29;20088;-64
2022/10/21 12:50:04;;;;;;;2.13;1.00;;;;;;;;;;4899326;29;20041;-65
2022/10/21 12:52:37;;;;;;;3.17;1.10;;;;;;;;;;4898077;29;20056;-64
2022/10/21 12:55:07;;;;;;;2.28;0.98;;;;;;;;;;4898356;29;20053;-65
2022/10/21 12:57:35;;;;;;;3.47;1.45;;;;;;;;;;4900352;29;20053;-65
2022/10/21 13:00:34;;;;;;;4.72;1.60;;;;;;;;;;4914084;29;20053;-65
2022/10/21 13:03:04;;;;;;;3.15;1.02;;;;;;;;;;4913405;29;20048;-63
2022/10/21 13:05:36;;;;;;;2.90;1.10;;;;;;;;;;4898404;29;20049;-64
2022/10/21 13:08:32;;;;;;;2.83;1.10;;;;;;;;;;4899242;29;20047;-64
2022/10/21 13:11:02;;;;;;;5.55;1.48;;;;;;;;;;4890052;29;20131;-64
2022/10/21 13:13:33;;;;;;;5.30;1.42;;;;;;;;;;4898451;29;20059;-64
2022/10/21 13:16:20;;;;;;;3.85;1.40;;;;;;;;;;4899120;29;20557;-64
2022/10/21 13:18:49;;;;;;;5.15;1.13;;;;;;;;;;4899085;29;20088;-64
2022/10/21 13:21:34;;;;;;;4.18;1.38;;;;;;;;;;4899322;29;20063;-64
2022/10/21 13:24:21;;;;;;;2.65;1.60;;;;;;;;;;4898580;29;20375;-64
2022/10/21 13:26:52;;;;;;;3.40;1.50;;;;;;;;;;4913584;29;20049;-65
2022/10/21 13:29:19;;;;;;;5.47;1.63;;;;;;;;;;4897512;29;20183;-65
2022/10/21 13:31:45;;;;;;;4.10;1.92;;;;;;;;;;4897968;29;20056;-65
2022/10/21 13:34:28;;;;;;;6.68;1.95;;;;;;;;;;4898155;29;20152;-65
2022/10/21 13:36:55;;;;;;;4.88;2.20;;;;;;;;;;4898896;29;20112;-64
2022/10/21 13:39:24;;;;;;;5.40;2.15;;;;;;;;;;4897615;29;20059;-64
2022/10/21 13:41:57;;;;;;;4.15;1.90;;;;;;;;;;4899404;29;20060;-65
2022/10/21 13:44:33;;;;;;;8.15;2.30;;;;;;;;;;4899247;29;20052;-66
2022/10/21 13:47:19;;;;;;;4.78;2.38;;;;;;;;;;4898487;29;20438;-66
2022/10/21 13:49:49;;;;;;;2.78;1.40;;;;;;;;;;4898477;29;20044;-65
2022/10/21 13:52:16;;;;;;;10.93;1.80;;;;;;;;;;4912842;29;20044;-67
2022/10/21 13:54:42;;;;;;;5.78;2.47;;;;;;;;;;4897200;29;20053;-64
2022/10/21 13:57:10;;;;;;;5.50;2.00;;;;;;;;;;4900044;29;20052;-64
2022/10/21 13:59:36;;;;;;;5.93;2.47;;;;;;;;;;4896964;29;20387;-64
2022/10/21 14:02:04;;;;;;;5.63;1.70;;;;;;;;;;4880974;29;20578;-64
2022/10/21 14:04:31;;;;;;;5.53;1.75;;;;;;;;;;4896864;29;20505;-64
2022/10/21 14:07:03;;;;;;;5.22;1.50;;;;;;;;;;4898268;29;20044;-63
2022/10/21 14:09:43;;;;;;;4.15;1.77;;;;;;;;;;4896966;29;20520;-64
2022/10/21 14:12:31;;;;;;;3.92;1.60;;;;;;;;;;4897732;29;20409;-64
2022/10/21 14:15:01;;;;;;;7.30;2.10;;;;;;;;;;4912428;29;20557;-65
2022/10/21 14:17:27;;;;;;;6.30;1.70;;;;;;;;;;4898006;29;20053;-65
2022/10/21 14:19:58;;;;;;;4.65;1.90;;;;;;;;;;4897807;29;20578;-64
2022/10/21 14:22:25;;;;;;;4.53;1.75;;;;;;;;;;4911524;29;20505;-65
2022/10/21 14:24:53;;;;;;;3.05;1.70;;;;;;;;;;4896446;29;20074;-64
2022/10/21 14:27:23;;;;;;;4.60;2.03;;;;;;;;;;4912214;29;20060;-65
2022/10/21 14:29:50;;;;;;;5.65;2.05;;;;;;;;;;4897504;29;20044;-65
2022/10/21 14:32:19;;;;;;;5.78;1.90;;;;;;;;;;4911750;29;20055;-65
2022/10/21 14:35:04;;;;;;;5.18;1.90;;;;;;;;;;4896301;29;20063;-66
2022/10/21 14:37:54;;;;;;;5.40;2.20;;;;;;;;;;4899120;29;20044;-65
2022/10/21 14:40:30;;;;;;;4.57;1.63;;;;;;;;;;4895100;29;20136;-66
2022/10/21 14:43:07;;;;;;;5.45;2.00;;;;;;;;;;4895993;29;20064;-66
2022/10/21 14:45:34;;;;;;;5.18;2.00;;;;;;;;;;4896459;29;20044;-66
2022/10/21 14:48:09;;;;;;;3.88;1.98;;;;;;;;;;4896549;29;20383;-66
2022/10/21 14:50:36;;;;;;;4.43;1.98;;;;;;;;;;4897488;29;20041;-66
2022/10/21 14:53:11;;;;;;;5.13;2.13;;;;;;;;;;4895881;29;20044;-66
2022/10/21 14:55:38;;;;;;;3.25;1.65;;;;;;;;;;4897511;29;20497;-66
2022/10/21 14:58:07;;;;;;;3.65;1.80;;;;;;;;;;4912055;29;20060;-66
2022/10/21 15:00:39;;;;;;;6.13;2.25;;;;;;;;;;4896166;29;20053;-65
2022/10/21 15:03:07;;;;;;;4.53;1.95;;;;;;;;;;4895877;29;20476;-65